sensor_id;sensor_type;location;lat;lon;timestamp;P1;durP1;ratioP1;P2;durP2;ratioP2
26151;SDS011;13907;53.154;8.202;2022-08-30T00:01:31;0.30;;;0.30;;
26151;SDS011;13907;53.154;8.202;2022-08-30T00:03:58;0.70;;;0.70;;
26151;SDS011;13907;53.154;8.202;2022-08-30T00:06:26;0.30;;;0.30;;
26151;SDS011;13907;53.154;8.202;2022-08-30T00:08:53;1.45;;;0.60;;
26151;SDS011;13907;53.154;8.202;2022-08-30T00:11:23;0.50;;;0.47;;
26151;SDS011;13907;53.154;8.202;2022-08-30T00:13:51;2.85;;;1.33;;
26151;SDS011;13907;53.154;8.202;2022-08-30T00:16:19;2.38;;;0.52;;
26151;SDS011;13907;53.154;8.202;2022-08-30T00:18:48;0.77;;;0.77;;
26151;SDS011;13907;53.154;8.202;2022-08-30T00:21:15;0.73;;;0.43;;
26151;SDS011;13907;53.154;8.202;2022-08-30T00:23:42;0.47;;;0.47;;
26151;SDS011;13907;53.154;8.202;2022-08-30T00:26:09;2.13;;;0.50;;
26151;SDS011;13907;53.154;8.202;2022-08-30T00:28:36;4.00;;;0.65;;
26151;SDS011;13907;53.154;8.202;2022-08-30T00:31:04;0.30;;;0.30;;
26151;SDS011;13907;53.154;8.202;2022-08-30T00:33:32;1.70;;;0.93;;
26151;SDS011;13907;53.154;8.202;2022-08-30T00:36:01;0.73;;;0.68;;
26151;SDS011;13907;53.154;8.202;2022-08-30T00:38:28;0.50;;;0.50;;
26151;SDS011;13907;53.154;8.202;2022-08-30T00:40:55;0.90;;;0.57;;
26151;SDS011;13907;53.154;8.202;2022-08-30T00:43:24;0.65;;;0.65;;
26151;SDS011;13907;53.154;8.202;2022-08-30T00:45:51;2.97;;;0.80;;
26151;SDS011;13907;53.154;8.202;2022-08-30T00:48:19;0.65;;;0.65;;
26151;SDS011;13907;53.154;8.202;2022-08-30T00:50:46;0.73;;;0.73;;
26151;SDS011;13907;53.154;8.202;2022-08-30T00:53:16;1.75;;;0.82;;
26151;SDS011;13907;53.154;8.202;2022-08-30T00:55:43;0.70;;;0.70;;
26151;SDS011;13907;53.154;8.202;2022-08-30T00:58:13;1.53;;;0.60;;
26151;SDS011;13907;53.154;8.202;2022-08-30T01:00:45;0.60;;;0.60;;
26151;SDS011;13907;53.154;8.202;2022-08-30T01:03:12;0.88;;;0.60;;
26151;SDS011;13907;53.154;8.202;2022-08-30T01:05:39;0.85;;;0.63;;
26151;SDS011;13907;53.154;8.202;2022-08-30T01:08:07;1.17;;;1.00;;
26151;SDS011;13907;53.154;8.202;2022-08-30T01:10:36;0.65;;;0.65;;
26151;SDS011;13907;53.154;8.202;2022-08-30T01:13:04;8.57;;;0.98;;
26151;SDS011;13907;53.154;8.202;2022-08-30T01:15:31;2.10;;;0.77;;
26151;SDS011;13907;53.154;8.202;2022-08-30T01:17:59;0.73;;;0.73;;
26151;SDS011;13907;53.154;8.202;2022-08-30T01:20:28;1.33;;;0.98;;
26151;SDS011;13907;53.154;8.202;2022-08-30T01:23:01;1.65;;;0.45;;
26151;SDS011;13907;53.154;8.202;2022-08-30T01:25:29;1.98;;;1.15;;
26151;SDS011;13907;53.154;8.202;2022-08-30T01:27:58;1.70;;;0.87;;
26151;SDS011;13907;53.154;8.202;2022-08-30T01:30:25;1.10;;;0.70;;
26151;SDS011;13907;53.154;8.202;2022-08-30T01:32:56;0.50;;;0.50;;
26151;SDS011;13907;53.154;8.202;2022-08-30T01:35:23;0.80;;;0.60;;
26151;SDS011;13907;53.154;8.202;2022-08-30T01:37:50;0.70;;;0.70;;
26151;SDS011;13907;53.154;8.202;2022-08-30T01:40:19;1.37;;;0.80;;
26151;SDS011;13907;53.154;8.202;2022-08-30T01:42:46;0.87;;;0.70;;
26151;SDS011;13907;53.154;8.202;2022-08-30T01:45:14;0.90;;;0.90;;
26151;SDS011;13907;53.154;8.202;2022-08-30T01:47:41;0.90;;;0.80;;
26151;SDS011;13907;53.154;8.202;2022-08-30T01:50:08;0.60;;;0.60;;
26151;SDS011;13907;53.154;8.202;2022-08-30T01:52:35;1.17;;;1.07;;
26151;SDS011;13907;53.154;8.202;2022-08-30T01:55:03;1.63;;;0.95;;
26151;SDS011;13907;53.154;8.202;2022-08-30T01:57:32;2.10;;;0.87;;
26151;SDS011;13907;53.154;8.202;2022-08-30T01:59:59;1.23;;;0.83;;
26151;SDS011;13907;53.154;8.202;2022-08-30T02:02:27;1.08;;;0.57;;
26151;SDS011;13907;53.154;8.202;2022-08-30T02:04:55;1.60;;;0.60;;
26151;SDS011;13907;53.154;8.202;2022-08-30T02:07:22;1.40;;;0.80;;
26151;SDS011;13907;53.154;8.202;2022-08-30T02:09:50;1.20;;;0.63;;
26151;SDS011;13907;53.154;8.202;2022-08-30T02:12:17;0.60;;;0.50;;
26151;SDS011;13907;53.154;8.202;2022-08-30T02:14:46;0.77;;;0.50;;
26151;SDS011;13907;53.154;8.202;2022-08-30T02:17:13;1.10;;;0.50;;
26151;SDS011;13907;53.154;8.202;2022-08-30T02:19:40;1.00;;;0.90;;
26151;SDS011;13907;53.154;8.202;2022-08-30T02:22:08;1.37;;;1.10;;
26151;SDS011;13907;53.154;8.202;2022-08-30T02:24:35;1.17;;;0.67;;
26151;SDS011;13907;53.154;8.202;2022-08-30T02:27:03;1.57;;;0.70;;
26151;SDS011;13907;53.154;8.202;2022-08-30T02:29:30;1.37;;;0.67;;
26151;SDS011;13907;53.154;8.202;2022-08-30T02:31:59;0.83;;;0.70;;
26151;SDS011;13907;53.154;8.202;2022-08-30T02:34:26;2.70;;;0.87;;
26151;SDS011;13907;53.154;8.202;2022-08-30T02:36:53;2.20;;;0.90;;
26151;SDS011;13907;53.154;8.202;2022-08-30T02:39:20;1.50;;;0.67;;
26151;SDS011;13907;53.154;8.202;2022-08-30T02:41:47;1.03;;;0.70;;
26151;SDS011;13907;53.154;8.202;2022-08-30T02:44:15;1.73;;;0.90;;
26151;SDS011;13907;53.154;8.202;2022-08-30T02:46:42;0.87;;;0.60;;
26151;SDS011;13907;53.154;8.202;2022-08-30T02:49:11;1.23;;;0.80;;
26151;SDS011;13907;53.154;8.202;2022-08-30T02:51:38;1.17;;;0.80;;
26151;SDS011;13907;53.154;8.202;2022-08-30T02:54:05;0.73;;;0.70;;
26151;SDS011;13907;53.154;8.202;2022-08-30T02:56:32;0.93;;;0.80;;
26151;SDS011;13907;53.154;8.202;2022-08-30T02:59:00;0.60;;;0.60;;
26151;SDS011;13907;53.154;8.202;2022-08-30T03:01:27;3.37;;;0.90;;
26151;SDS011;13907;53.154;8.202;2022-08-30T03:03:59;0.70;;;0.70;;
26151;SDS011;13907;53.154;8.202;2022-08-30T03:06:28;2.27;;;0.80;;
26151;SDS011;13907;53.154;8.202;2022-08-30T03:08:55;3.03;;;1.53;;
26151;SDS011;13907;53.154;8.202;2022-08-30T03:11:22;0.97;;;0.93;;
26151;SDS011;13907;53.154;8.202;2022-08-30T03:13:49;0.97;;;0.90;;
26151;SDS011;13907;53.154;8.202;2022-08-30T03:16:16;0.90;;;0.90;;
26151;SDS011;13907;53.154;8.202;2022-08-30T03:18:43;0.70;;;0.70;;
26151;SDS011;13907;53.154;8.202;2022-08-30T03:21:10;1.27;;;0.73;;
26151;SDS011;13907;53.154;8.202;2022-08-30T03:23:39;1.07;;;0.60;;
26151;SDS011;13907;53.154;8.202;2022-08-30T03:26:06;0.87;;;0.57;;
26151;SDS011;13907;53.154;8.202;2022-08-30T03:28:34;1.30;;;1.20;;
26151;SDS011;13907;53.154;8.202;2022-08-30T03:31:01;0.77;;;0.77;;
26151;SDS011;13907;53.154;8.202;2022-08-30T03:33:28;2.77;;;1.20;;
26151;SDS011;13907;53.154;8.202;2022-08-30T03:35:55;0.53;;;0.53;;
26151;SDS011;13907;53.154;8.202;2022-08-30T03:38:22;1.13;;;0.93;;
26151;SDS011;13907;53.154;8.202;2022-08-30T03:40:51;1.47;;;0.77;;
26151;SDS011;13907;53.154;8.202;2022-08-30T03:43:18;1.27;;;1.00;;
26151;SDS011;13907;53.154;8.202;2022-08-30T03:45:45;0.77;;;0.77;;
26151;SDS011;13907;53.154;8.202;2022-08-30T03:48:12;0.83;;;0.80;;
26151;SDS011;13907;53.154;8.202;2022-08-30T03:50:39;1.20;;;1.00;;
26151;SDS011;13907;53.154;8.202;2022-08-30T03:53:08;1.17;;;1.07;;
26151;SDS011;13907;53.154;8.202;2022-08-30T03:55:35;1.40;;;0.90;;
26151;SDS011;13907;53.154;8.202;2022-08-30T03:58:04;1.33;;;0.70;;
26151;SDS011;13907;53.154;8.202;2022-08-30T04:00:31;1.53;;;1.20;;
26151;SDS011;13907;53.154;8.202;2022-08-30T04:02:58;1.10;;;0.70;;
26151;SDS011;13907;53.154;8.202;2022-08-30T04:05:26;0.80;;;0.80;;
26151;SDS011;13907;53.154;8.202;2022-08-30T04:07:53;4.80;;;0.93;;
26151;SDS011;13907;53.154;8.202;2022-08-30T04:10:20;1.97;;;1.03;;
26151;SDS011;13907;53.154;8.202;2022-08-30T04:12:47;3.23;;;1.20;;
26151;SDS011;13907;53.154;8.202;2022-08-30T04:15:16;1.30;;;0.93;;
26151;SDS011;13907;53.154;8.202;2022-08-30T04:17:44;1.37;;;0.80;;
26151;SDS011;13907;53.154;8.202;2022-08-30T04:20:11;1.27;;;1.17;;
26151;SDS011;13907;53.154;8.202;2022-08-30T04:22:39;2.27;;;1.30;;
26151;SDS011;13907;53.154;8.202;2022-08-30T04:25:07;2.30;;;1.10;;
26151;SDS011;13907;53.154;8.202;2022-08-30T04:27:34;1.30;;;0.90;;
26151;SDS011;13907;53.154;8.202;2022-08-30T04:33:06;2.43;;;1.00;;
26151;SDS011;13907;53.154;8.202;2022-08-30T04:35:33;1.07;;;1.00;;
26151;SDS011;13907;53.154;8.202;2022-08-30T04:38:00;1.70;;;0.80;;
26151;SDS011;13907;53.154;8.202;2022-08-30T04:40:27;0.80;;;0.80;;
26151;SDS011;13907;53.154;8.202;2022-08-30T04:42:55;1.30;;;1.20;;
26151;SDS011;13907;53.154;8.202;2022-08-30T04:45:23;2.63;;;1.13;;
26151;SDS011;13907;53.154;8.202;2022-08-30T04:47:50;1.00;;;0.80;;
26151;SDS011;13907;53.154;8.202;2022-08-30T04:50:19;1.43;;;0.90;;
26151;SDS011;13907;53.154;8.202;2022-08-30T04:52:46;2.13;;;1.00;;
26151;SDS011;13907;53.154;8.202;2022-08-30T04:55:14;1.27;;;1.00;;
26151;SDS011;13907;53.154;8.202;2022-08-30T04:57:41;1.97;;;0.90;;
26151;SDS011;13907;53.154;8.202;2022-08-30T05:00:09;2.10;;;1.40;;
26151;SDS011;13907;53.154;8.202;2022-08-30T05:02:37;1.60;;;1.40;;
26151;SDS011;13907;53.154;8.202;2022-08-30T05:05:04;3.80;;;2.40;;
26151;SDS011;13907;53.154;8.202;2022-08-30T05:07:50;1.43;;;1.30;;
26151;SDS011;13907;53.154;8.202;2022-08-30T05:10:18;0.90;;;0.90;;
26151;SDS011;13907;53.154;8.202;2022-08-30T05:12:45;1.67;;;0.85;;
26151;SDS011;13907;53.154;8.202;2022-08-30T05:15:12;2.35;;;0.90;;
26151;SDS011;13907;53.154;8.202;2022-08-30T05:17:39;1.02;;;0.90;;
26151;SDS011;13907;53.154;8.202;2022-08-30T05:20:07;1.65;;;1.13;;
26151;SDS011;13907;53.154;8.202;2022-08-30T05:22:35;1.80;;;1.20;;
26151;SDS011;13907;53.154;8.202;2022-08-30T05:25:04;1.17;;;0.93;;
26151;SDS011;13907;53.154;8.202;2022-08-30T05:27:31;1.70;;;1.23;;
26151;SDS011;13907;53.154;8.202;2022-08-30T05:29:58;1.80;;;0.77;;
26151;SDS011;13907;53.154;8.202;2022-08-30T05:35:29;1.17;;;0.80;;
26151;SDS011;13907;53.154;8.202;2022-08-30T05:37:56;1.73;;;0.80;;
26151;SDS011;13907;53.154;8.202;2022-08-30T05:40:25;1.37;;;1.10;;
26151;SDS011;13907;53.154;8.202;2022-08-30T05:42:52;2.47;;;0.90;;
26151;SDS011;13907;53.154;8.202;2022-08-30T05:45:19;1.03;;;0.80;;
26151;SDS011;13907;53.154;8.202;2022-08-30T05:47:46;1.70;;;0.80;;
26151;SDS011;13907;53.154;8.202;2022-08-30T05:50:13;0.73;;;0.65;;
26151;SDS011;13907;53.154;8.202;2022-08-30T05:52:41;1.13;;;1.00;;
26151;SDS011;13907;53.154;8.202;2022-08-30T05:55:09;0.70;;;0.60;;
26151;SDS011;13907;53.154;8.202;2022-08-30T05:57:38;3.03;;;0.80;;
26151;SDS011;13907;53.154;8.202;2022-08-30T06:00:06;1.25;;;0.75;;
26151;SDS011;13907;53.154;8.202;2022-08-30T06:02:34;3.13;;;1.00;;
26151;SDS011;13907;53.154;8.202;2022-08-30T06:05:01;1.75;;;0.90;;
26151;SDS011;13907;53.154;8.202;2022-08-30T06:07:29;2.30;;;0.80;;
26151;SDS011;13907;53.154;8.202;2022-08-30T06:09:56;1.30;;;1.10;;
26151;SDS011;13907;53.154;8.202;2022-08-30T06:12:23;0.80;;;0.60;;
26151;SDS011;13907;53.154;8.202;2022-08-30T06:14:51;2.30;;;1.10;;
26151;SDS011;13907;53.154;8.202;2022-08-30T06:17:18;6.80;;;1.25;;
26151;SDS011;13907;53.154;8.202;2022-08-30T06:19:46;1.05;;;0.60;;
26151;SDS011;13907;53.154;8.202;2022-08-30T06:22:13;0.70;;;0.70;;
26151;SDS011;13907;53.154;8.202;2022-08-30T06:24:40;1.23;;;0.90;;
26151;SDS011;13907;53.154;8.202;2022-08-30T06:27:08;0.60;;;0.60;;
26151;SDS011;13907;53.154;8.202;2022-08-30T06:29:35;3.70;;;0.67;;
26151;SDS011;13907;53.154;8.202;2022-08-30T06:32:03;1.60;;;0.70;;
26151;SDS011;13907;53.154;8.202;2022-08-30T06:34:31;2.58;;;0.80;;
26151;SDS011;13907;53.154;8.202;2022-08-30T06:36:58;4.40;;;1.20;;
26151;SDS011;13907;53.154;8.202;2022-08-30T06:39:25;4.23;;;0.90;;
26151;SDS011;13907;53.154;8.202;2022-08-30T06:41:52;4.20;;;1.17;;
26151;SDS011;13907;53.154;8.202;2022-08-30T06:44:19;0.60;;;0.60;;
26151;SDS011;13907;53.154;8.202;2022-08-30T06:46:46;0.70;;;0.70;;
26151;SDS011;13907;53.154;8.202;2022-08-30T06:49:15;1.02;;;0.93;;
26151;SDS011;13907;53.154;8.202;2022-08-30T06:51:42;0.82;;;0.75;;
26151;SDS011;13907;53.154;8.202;2022-08-30T06:54:09;5.20;;;1.33;;
26151;SDS011;13907;53.154;8.202;2022-08-30T06:56:36;2.05;;;0.90;;
26151;SDS011;13907;53.154;8.202;2022-08-30T06:59:04;2.35;;;0.77;;
26151;SDS011;13907;53.154;8.202;2022-08-30T07:01:31;0.63;;;0.63;;
26151;SDS011;13907;53.154;8.202;2022-08-30T07:03:58;0.70;;;0.70;;
26151;SDS011;13907;53.154;8.202;2022-08-30T07:06:27;1.88;;;0.98;;
26151;SDS011;13907;53.154;8.202;2022-08-30T07:08:54;0.57;;;0.57;;
26151;SDS011;13907;53.154;8.202;2022-08-30T07:11:26;1.85;;;1.02;;
26151;SDS011;13907;53.154;8.202;2022-08-30T07:13:53;1.10;;;1.00;;
26151;SDS011;13907;53.154;8.202;2022-08-30T07:16:20;2.22;;;0.60;;
26151;SDS011;13907;53.154;8.202;2022-08-30T07:18:47;1.20;;;0.65;;
26151;SDS011;13907;53.154;8.202;2022-08-30T07:21:20;2.60;;;0.75;;
26151;SDS011;13907;53.154;8.202;2022-08-30T07:23:49;1.38;;;0.47;;
26151;SDS011;13907;53.154;8.202;2022-08-30T07:26:16;1.10;;;0.65;;
26151;SDS011;13907;53.154;8.202;2022-08-30T07:28:44;0.47;;;0.47;;
26151;SDS011;13907;53.154;8.202;2022-08-30T07:31:13;0.63;;;0.40;;
26151;SDS011;13907;53.154;8.202;2022-08-30T07:33:41;0.93;;;0.65;;
26151;SDS011;13907;53.154;8.202;2022-08-30T07:36:08;0.95;;;0.70;;
26151;SDS011;13907;53.154;8.202;2022-08-30T07:38:35;1.40;;;0.80;;
26151;SDS011;13907;53.154;8.202;2022-08-30T07:41:04;0.50;;;0.35;;
26151;SDS011;13907;53.154;8.202;2022-08-30T07:43:31;2.92;;;0.60;;
26151;SDS011;13907;53.154;8.202;2022-08-30T07:46:03;1.40;;;0.60;;
26151;SDS011;13907;53.154;8.202;2022-08-30T07:48:31;0.65;;;0.52;;
26151;SDS011;13907;53.154;8.202;2022-08-30T07:50:58;0.50;;;0.43;;
26151;SDS011;13907;53.154;8.202;2022-08-30T07:53:25;1.38;;;0.80;;
26151;SDS011;13907;53.154;8.202;2022-08-30T07:55:52;0.55;;;0.50;;
26151;SDS011;13907;53.154;8.202;2022-08-30T07:58:21;0.95;;;0.50;;
26151;SDS011;13907;53.154;8.202;2022-08-30T08:00:48;0.80;;;0.55;;
26151;SDS011;13907;53.154;8.202;2022-08-30T08:03:15;1.02;;;0.50;;
26151;SDS011;13907;53.154;8.202;2022-08-30T08:05:43;0.65;;;0.30;;
26151;SDS011;13907;53.154;8.202;2022-08-30T08:08:11;0.40;;;0.40;;
26151;SDS011;13907;53.154;8.202;2022-08-30T08:10:39;2.08;;;0.55;;
26151;SDS011;13907;53.154;8.202;2022-08-30T08:13:07;0.60;;;0.55;;
26151;SDS011;13907;53.154;8.202;2022-08-30T08:15:35;1.80;;;0.70;;
26151;SDS011;13907;53.154;8.202;2022-08-30T08:18:02;0.40;;;0.40;;
26151;SDS011;13907;53.154;8.202;2022-08-30T08:20:30;0.47;;;0.40;;
26151;SDS011;13907;53.154;8.202;2022-08-30T08:22:57;0.45;;;0.30;;
26151;SDS011;13907;53.154;8.202;2022-08-30T08:25:24;0.65;;;0.32;;
26151;SDS011;13907;53.154;8.202;2022-08-30T08:27:52;0.93;;;0.40;;
26151;SDS011;13907;53.154;8.202;2022-08-30T08:30:19;0.68;;;0.50;;
26151;SDS011;13907;53.154;8.202;2022-08-30T08:32:48;1.35;;;0.70;;
26151;SDS011;13907;53.154;8.202;2022-08-30T08:35:16;1.90;;;0.60;;
26151;SDS011;13907;53.154;8.202;2022-08-30T08:37:43;2.45;;;0.80;;
26151;SDS011;13907;53.154;8.202;2022-08-30T08:40:12;0.90;;;0.50;;
26151;SDS011;13907;53.154;8.202;2022-08-30T08:42:44;0.73;;;0.70;;
26151;SDS011;13907;53.154;8.202;2022-08-30T08:45:14;0.45;;;0.45;;
26151;SDS011;13907;53.154;8.202;2022-08-30T08:47:46;0.70;;;0.70;;
26151;SDS011;13907;53.154;8.202;2022-08-30T08:50:18;0.55;;;0.55;;
26151;SDS011;13907;53.154;8.202;2022-08-30T08:52:49;0.25;;;0.25;;
26151;SDS011;13907;53.154;8.202;2022-08-30T08:55:36;1.90;;;0.50;;
26151;SDS011;13907;53.154;8.202;2022-08-30T08:58:05;0.30;;;0.30;;
26151;SDS011;13907;53.154;8.202;2022-08-30T09:00:32;1.45;;;0.75;;
26151;SDS011;13907;53.154;8.202;2022-08-30T09:02:59;0.80;;;0.55;;
26151;SDS011;13907;53.154;8.202;2022-08-30T09:05:30;0.75;;;0.63;;
26151;SDS011;13907;53.154;8.202;2022-08-30T09:08:01;1.27;;;0.55;;
26151;SDS011;13907;53.154;8.202;2022-08-30T09:10:29;0.50;;;0.47;;
26151;SDS011;13907;53.154;8.202;2022-08-30T09:12:57;0.85;;;0.65;;
26151;SDS011;13907;53.154;8.202;2022-08-30T09:15:25;0.50;;;0.50;;
26151;SDS011;13907;53.154;8.202;2022-08-30T09:17:53;1.17;;;1.08;;
26151;SDS011;13907;53.154;8.202;2022-08-30T09:20:26;0.50;;;0.40;;
26151;SDS011;13907;53.154;8.202;2022-08-30T09:22:54;0.85;;;0.43;;
26151;SDS011;13907;53.154;8.202;2022-08-30T09:25:23;1.00;;;0.60;;
26151;SDS011;13907;53.154;8.202;2022-08-30T09:27:51;2.70;;;0.55;;
26151;SDS011;13907;53.154;8.202;2022-08-30T09:30:19;1.55;;;0.57;;
26151;SDS011;13907;53.154;8.202;2022-08-30T09:32:51;4.13;;;0.60;;
26151;SDS011;13907;53.154;8.202;2022-08-30T09:35:20;1.10;;;0.40;;
26151;SDS011;13907;53.154;8.202;2022-08-30T09:37:50;2.83;;;0.30;;
26151;SDS011;13907;53.154;8.202;2022-08-30T09:40:23;0.38;;;0.38;;
26151;SDS011;13907;53.154;8.202;2022-08-30T09:42:58;0.88;;;0.70;;
26151;SDS011;13907;53.154;8.202;2022-08-30T09:45:27;0.55;;;0.50;;
26151;SDS011;13907;53.154;8.202;2022-08-30T09:47:55;0.45;;;0.45;;
26151;SDS011;13907;53.154;8.202;2022-08-30T09:50:23;1.20;;;0.30;;
26151;SDS011;13907;53.154;8.202;2022-08-30T09:52:56;1.17;;;0.40;;
26151;SDS011;13907;53.154;8.202;2022-08-30T09:55:29;0.85;;;0.50;;
26151;SDS011;13907;53.154;8.202;2022-08-30T09:57:58;1.13;;;0.40;;
26151;SDS011;13907;53.154;8.202;2022-08-30T10:00:28;0.55;;;0.55;;
26151;SDS011;13907;53.154;8.202;2022-08-30T10:02:58;0.85;;;0.35;;
26151;SDS011;13907;53.154;8.202;2022-08-30T10:05:29;0.88;;;0.50;;
26151;SDS011;13907;53.154;8.202;2022-08-30T10:08:00;1.75;;;0.77;;
26151;SDS011;13907;53.154;8.202;2022-08-30T10:10:33;0.57;;;0.30;;
26151;SDS011;13907;53.154;8.202;2022-08-30T10:13:05;1.13;;;0.45;;
26151;SDS011;13907;53.154;8.202;2022-08-30T10:15:40;0.77;;;0.68;;
26151;SDS011;13907;53.154;8.202;2022-08-30T10:18:11;6.32;;;0.45;;
26151;SDS011;13907;53.154;8.202;2022-08-30T10:20:43;2.03;;;0.55;;
26151;SDS011;13907;53.154;8.202;2022-08-30T10:23:15;0.60;;;0.50;;
26151;SDS011;13907;53.154;8.202;2022-08-30T10:25:44;0.28;;;0.28;;
26151;SDS011;13907;53.154;8.202;2022-08-30T10:28:13;0.57;;;0.30;;
26151;SDS011;13907;53.154;8.202;2022-08-30T10:30:43;0.60;;;0.40;;
26151;SDS011;13907;53.154;8.202;2022-08-30T10:33:13;0.38;;;0.30;;
26151;SDS011;13907;53.154;8.202;2022-08-30T10:35:42;0.55;;;0.40;;
26151;SDS011;13907;53.154;8.202;2022-08-30T10:38:10;0.40;;;0.40;;
26151;SDS011;13907;53.154;8.202;2022-08-30T10:40:41;0.20;;;0.20;;
26151;SDS011;13907;53.154;8.202;2022-08-30T10:43:42;0.45;;;0.40;;
26151;SDS011;13907;53.154;8.202;2022-08-30T10:46:13;0.65;;;0.25;;
26151;SDS011;13907;53.154;8.202;2022-08-30T10:48:42;1.08;;;0.55;;
26151;SDS011;13907;53.154;8.202;2022-08-30T10:51:11;0.35;;;0.35;;
26151;SDS011;13907;53.154;8.202;2022-08-30T10:53:41;1.80;;;0.30;;
26151;SDS011;13907;53.154;8.202;2022-08-30T10:56:09;0.55;;;0.55;;
26151;SDS011;13907;53.154;8.202;2022-08-30T10:58:37;2.25;;;0.65;;
26151;SDS011;13907;53.154;8.202;2022-08-30T11:01:16;0.40;;;0.32;;
26151;SDS011;13907;53.154;8.202;2022-08-30T11:03:54;0.90;;;0.60;;
26151;SDS011;13907;53.154;8.202;2022-08-30T11:06:26;0.32;;;0.28;;
26151;SDS011;13907;53.154;8.202;2022-08-30T11:09:04;0.50;;;0.50;;
26151;SDS011;13907;53.154;8.202;2022-08-30T11:11:38;0.85;;;0.40;;
26151;SDS011;13907;53.154;8.202;2022-08-30T11:14:08;0.43;;;0.30;;
26151;SDS011;13907;53.154;8.202;2022-08-30T11:16:37;0.75;;;0.40;;
26151;SDS011;13907;53.154;8.202;2022-08-30T11:19:12;1.65;;;0.45;;
26151;SDS011;13907;53.154;8.202;2022-08-30T11:21:40;0.45;;;0.45;;
26151;SDS011;13907;53.154;8.202;2022-08-30T11:24:09;1.40;;;0.77;;
26151;SDS011;13907;53.154;8.202;2022-08-30T11:26:50;0.77;;;0.30;;
26151;SDS011;13907;53.154;8.202;2022-08-30T11:29:31;0.40;;;0.40;;
26151;SDS011;13907;53.154;8.202;2022-08-30T11:32:18;0.68;;;0.68;;
26151;SDS011;13907;53.154;8.202;2022-08-30T11:34:52;1.05;;;0.43;;
26151;SDS011;13907;53.154;8.202;2022-08-30T11:37:30;1.15;;;0.47;;
26151;SDS011;13907;53.154;8.202;2022-08-30T11:40:00;0.20;;;0.20;;
26151;SDS011;13907;53.154;8.202;2022-08-30T11:42:35;0.40;;;0.40;;
26151;SDS011;13907;53.154;8.202;2022-08-30T11:47:51;0.52;;;0.38;;
26151;SDS011;13907;53.154;8.202;2022-08-30T11:50:20;0.40;;;0.40;;
26151;SDS011;13907;53.154;8.202;2022-08-30T11:52:53;3.03;;;0.50;;
26151;SDS011;13907;53.154;8.202;2022-08-30T11:55:38;0.28;;;0.28;;
26151;SDS011;13907;53.154;8.202;2022-08-30T11:58:09;0.40;;;0.40;;
26151;SDS011;13907;53.154;8.202;2022-08-30T12:00:42;3.58;;;0.60;;
26151;SDS011;13907;53.154;8.202;2022-08-30T12:03:26;0.22;;;0.22;;
26151;SDS011;13907;53.154;8.202;2022-08-30T12:05:55;0.80;;;0.32;;
26151;SDS011;13907;53.154;8.202;2022-08-30T12:08:40;0.28;;;0.28;;
26151;SDS011;13907;53.154;8.202;2022-08-30T12:11:50;0.47;;;0.40;;
26151;SDS011;13907;53.154;8.202;2022-08-30T12:13:57;0.77;;;0.40;;
26151;SDS011;13907;53.154;8.202;2022-08-30T12:16:34;0.70;;;0.30;;
26151;SDS011;13907;53.154;8.202;2022-08-30T12:19:22;0.50;;;0.30;;
26151;SDS011;13907;53.154;8.202;2022-08-30T12:21:53;0.85;;;0.10;;
26151;SDS011;13907;53.154;8.202;2022-08-30T12:24:22;0.40;;;0.40;;
26151;SDS011;13907;53.154;8.202;2022-08-30T12:26:50;0.30;;;0.30;;
26151;SDS011;13907;53.154;8.202;2022-08-30T12:29:20;0.25;;;0.20;;
26151;SDS011;13907;53.154;8.202;2022-08-30T12:31:48;0.60;;;0.40;;
26151;SDS011;13907;53.154;8.202;2022-08-30T12:34:16;1.50;;;0.20;;
26151;SDS011;13907;53.154;8.202;2022-08-30T12:36:49;0.20;;;0.20;;
26151;SDS011;13907;53.154;8.202;2022-08-30T12:39:18;0.30;;;0.30;;
26151;SDS011;13907;53.154;8.202;2022-08-30T12:41:45;0.30;;;0.30;;
26151;SDS011;13907;53.154;8.202;2022-08-30T12:44:14;1.00;;;0.40;;
26151;SDS011;13907;53.154;8.202;2022-08-30T12:46:44;0.65;;;0.20;;
26151;SDS011;13907;53.154;8.202;2022-08-30T12:49:13;0.47;;;0.20;;
26151;SDS011;13907;53.154;8.202;2022-08-30T12:51:41;0.30;;;0.22;;
26151;SDS011;13907;53.154;8.202;2022-08-30T12:54:13;0.68;;;0.40;;
26151;SDS011;13907;53.154;8.202;2022-08-30T12:59:48;0.32;;;0.25;;
26151;SDS011;13907;53.154;8.202;2022-08-30T13:02:18;0.30;;;0.30;;
26151;SDS011;13907;53.154;8.202;2022-08-30T13:04:46;1.85;;;0.50;;
26151;SDS011;13907;53.154;8.202;2022-08-30T13:07:26;0.30;;;0.28;;
26151;SDS011;13907;53.154;8.202;2022-08-30T13:10:02;0.15;;;0.15;;
26151;SDS011;13907;53.154;8.202;2022-08-30T13:12:30;0.20;;;0.20;;
26151;SDS011;13907;53.154;8.202;2022-08-30T13:15:08;0.80;;;0.50;;
26151;SDS011;13907;53.154;8.202;2022-08-30T13:17:37;0.47;;;0.35;;
26151;SDS011;13907;53.154;8.202;2022-08-30T13:20:05;0.77;;;0.35;;
26151;SDS011;13907;53.154;8.202;2022-08-30T13:22:36;0.80;;;0.57;;
26151;SDS011;13907;53.154;8.202;2022-08-30T13:25:04;0.73;;;0.30;;
26151;SDS011;13907;53.154;8.202;2022-08-30T13:27:32;0.82;;;0.50;;
26151;SDS011;13907;53.154;8.202;2022-08-30T13:30:05;2.10;;;0.40;;
26151;SDS011;13907;53.154;8.202;2022-08-30T13:32:32;0.22;;;0.22;;
26151;SDS011;13907;53.154;8.202;2022-08-30T13:35:03;0.52;;;0.30;;
26151;SDS011;13907;53.154;8.202;2022-08-30T13:37:31;1.25;;;0.57;;
26151;SDS011;13907;53.154;8.202;2022-08-30T13:39:58;0.20;;;0.17;;
26151;SDS011;13907;53.154;8.202;2022-08-30T13:42:25;0.20;;;0.20;;
26151;SDS011;13907;53.154;8.202;2022-08-30T13:44:53;0.52;;;0.50;;
26151;SDS011;13907;53.154;8.202;2022-08-30T13:47:20;0.20;;;0.20;;
26151;SDS011;13907;53.154;8.202;2022-08-30T13:49:47;0.30;;;0.20;;
26151;SDS011;13907;53.154;8.202;2022-08-30T13:52:16;0.65;;;0.35;;
26151;SDS011;13907;53.154;8.202;2022-08-30T13:54:46;0.20;;;0.20;;
26151;SDS011;13907;53.154;8.202;2022-08-30T13:57:13;0.40;;;0.40;;
26151;SDS011;13907;53.154;8.202;2022-08-30T13:59:40;1.25;;;0.57;;
26151;SDS011;13907;53.154;8.202;2022-08-30T14:02:07;0.52;;;0.43;;
26151;SDS011;13907;53.154;8.202;2022-08-30T14:04:34;0.20;;;0.20;;
26151;SDS011;13907;53.154;8.202;2022-08-30T14:07:02;0.82;;;0.30;;
26151;SDS011;13907;53.154;8.202;2022-08-30T14:09:30;0.73;;;0.38;;
26151;SDS011;13907;53.154;8.202;2022-08-30T14:11:57;0.20;;;0.20;;
26151;SDS011;13907;53.154;8.202;2022-08-30T14:14:24;0.20;;;0.20;;
26151;SDS011;13907;53.154;8.202;2022-08-30T14:16:51;0.40;;;0.30;;
26151;SDS011;13907;53.154;8.202;2022-08-30T14:19:18;0.30;;;0.30;;
26151;SDS011;13907;53.154;8.202;2022-08-30T14:21:46;0.20;;;0.20;;
26151;SDS011;13907;53.154;8.202;2022-08-30T14:24:13;0.30;;;0.20;;
26151;SDS011;13907;53.154;8.202;2022-08-30T14:26:43;1.13;;;0.30;;
26151;SDS011;13907;53.154;8.202;2022-08-30T14:29:12;0.82;;;0.30;;
26151;SDS011;13907;53.154;8.202;2022-08-30T14:31:40;0.30;;;0.30;;
26151;SDS011;13907;53.154;8.202;2022-08-30T14:34:08;0.47;;;0.30;;
26151;SDS011;13907;53.154;8.202;2022-08-30T14:36:35;0.10;;;0.10;;
26151;SDS011;13907;53.154;8.202;2022-08-30T14:39:03;1.80;;;0.50;;
26151;SDS011;13907;53.154;8.202;2022-08-30T14:41:31;0.28;;;0.28;;
26151;SDS011;13907;53.154;8.202;2022-08-30T14:44:00;0.32;;;0.32;;
26151;SDS011;13907;53.154;8.202;2022-08-30T14:46:27;0.20;;;0.20;;
26151;SDS011;13907;53.154;8.202;2022-08-30T14:48:54;0.47;;;0.30;;
26151;SDS011;13907;53.154;8.202;2022-08-30T14:51:21;0.10;;;0.10;;
26151;SDS011;13907;53.154;8.202;2022-08-30T14:53:50;0.60;;;0.40;;
26151;SDS011;13907;53.154;8.202;2022-08-30T14:56:18;0.35;;;0.35;;
26151;SDS011;13907;53.154;8.202;2022-08-30T14:58:46;0.30;;;0.30;;
26151;SDS011;13907;53.154;8.202;2022-08-30T15:01:15;0.38;;;0.25;;
26151;SDS011;13907;53.154;8.202;2022-08-30T15:03:42;0.98;;;0.22;;
26151;SDS011;13907;53.154;8.202;2022-08-30T15:06:10;0.50;;;0.38;;
26151;SDS011;13907;53.154;8.202;2022-08-30T15:08:37;0.20;;;0.20;;
26151;SDS011;13907;53.154;8.202;2022-08-30T15:11:06;0.50;;;0.30;;